sensor_id;sensor_type;location;lat;lon;timestamp;P1;durP1;ratioP1;P2;durP2;ratioP2
12271;SDS011;6198;51.446;6.698;2024-01-06T00:01:04;22.60;;;15.80;;
12271;SDS011;6198;51.446;6.698;2024-01-06T00:03:30;21.20;;;16.10;;
12271;SDS011;6198;51.446;6.698;2024-01-06T00:05:56;23.13;;;16.80;;
12271;SDS011;6198;51.446;6.698;2024-01-06T00:08:24;23.03;;;16.93;;
12271;SDS011;6198;51.446;6.698;2024-01-06T00:10:50;23.17;;;17.03;;
12271;SDS011;6198;51.446;6.698;2024-01-06T00:13:16;23.67;;;16.67;;
12271;SDS011;6198;51.446;6.698;2024-01-06T00:15:42;24.03;;;16.63;;
12271;SDS011;6198;51.446;6.698;2024-01-06T00:18:08;22.17;;;16.40;;
12271;SDS011;6198;51.446;6.698;2024-01-06T00:20:34;24.80;;;16.20;;
12271;SDS011;6198;51.446;6.698;2024-01-06T00:23:00;24.47;;;16.60;;
12271;SDS011;6198;51.446;6.698;2024-01-06T00:25:26;25.00;;;16.20;;
12271;SDS011;6198;51.446;6.698;2024-01-06T00:27:52;24.27;;;16.60;;
12271;SDS011;6198;51.446;6.698;2024-01-06T00:30:21;22.03;;;16.63;;
12271;SDS011;6198;51.446;6.698;2024-01-06T00:32:47;21.73;;;15.30;;
12271;SDS011;6198;51.446;6.698;2024-01-06T00:35:13;24.97;;;16.50;;
12271;SDS011;6198;51.446;6.698;2024-01-06T00:37:39;22.27;;;15.90;;
12271;SDS011;6198;51.446;6.698;2024-01-06T00:40:05;24.63;;;16.43;;
12271;SDS011;6198;51.446;6.698;2024-01-06T00:42:31;24.27;;;16.60;;
12271;SDS011;6198;51.446;6.698;2024-01-06T00:44:57;25.37;;;16.87;;
12271;SDS011;6198;51.446;6.698;2024-01-06T00:47:23;23.07;;;16.10;;
12271;SDS011;6198;51.446;6.698;2024-01-06T00:49:49;23.57;;;16.43;;
12271;SDS011;6198;51.446;6.698;2024-01-06T00:52:15;27.30;;;17.77;;
12271;SDS011;6198;51.446;6.698;2024-01-06T00:54:41;23.57;;;17.23;;
12271;SDS011;6198;51.446;6.698;2024-01-06T00:57:07;24.67;;;17.30;;
12271;SDS011;6198;51.446;6.698;2024-01-06T00:59:33;24.30;;;17.07;;
12271;SDS011;6198;51.446;6.698;2024-01-06T01:01:59;29.23;;;18.10;;
12271;SDS011;6198;51.446;6.698;2024-01-06T01:04:25;25.57;;;17.73;;
12271;SDS011;6198;51.446;6.698;2024-01-06T01:06:51;26.27;;;17.43;;
12271;SDS011;6198;51.446;6.698;2024-01-06T01:09:17;26.10;;;18.27;;
12271;SDS011;6198;51.446;6.698;2024-01-06T01:11:43;26.03;;;17.90;;
12271;SDS011;6198;51.446;6.698;2024-01-06T01:14:09;26.90;;;18.00;;
12271;SDS011;6198;51.446;6.698;2024-01-06T01:16:35;29.67;;;19.77;;
12271;SDS011;6198;51.446;6.698;2024-01-06T01:19:01;28.43;;;19.90;;
12271;SDS011;6198;51.446;6.698;2024-01-06T01:21:27;27.50;;;20.07;;
12271;SDS011;6198;51.446;6.698;2024-01-06T01:23:53;25.60;;;18.77;;
12271;SDS011;6198;51.446;6.698;2024-01-06T01:26:19;29.03;;;19.53;;
12271;SDS011;6198;51.446;6.698;2024-01-06T01:28:45;28.63;;;19.67;;
12271;SDS011;6198;51.446;6.698;2024-01-06T01:31:12;31.57;;;20.43;;
12271;SDS011;6198;51.446;6.698;2024-01-06T01:33:38;33.07;;;21.43;;
12271;SDS011;6198;51.446;6.698;2024-01-06T01:36:04;32.17;;;21.77;;
12271;SDS011;6198;51.446;6.698;2024-01-06T01:38:30;31.87;;;20.63;;
12271;SDS011;6198;51.446;6.698;2024-01-06T01:40:56;33.20;;;21.93;;
12271;SDS011;6198;51.446;6.698;2024-01-06T01:43:23;37.13;;;22.33;;
12271;SDS011;6198;51.446;6.698;2024-01-06T01:45:53;36.13;;;21.80;;
12271;SDS011;6198;51.446;6.698;2024-01-06T01:48:19;35.70;;;21.80;;
12271;SDS011;6198;51.446;6.698;2024-01-06T01:50:46;37.27;;;22.40;;
12271;SDS011;6198;51.446;6.698;2024-01-06T01:53:12;32.80;;;21.80;;
12271;SDS011;6198;51.446;6.698;2024-01-06T01:55:39;38.63;;;22.83;;
12271;SDS011;6198;51.446;6.698;2024-01-06T01:58:05;36.83;;;21.87;;
12271;SDS011;6198;51.446;6.698;2024-01-06T02:00:31;36.30;;;22.33;;
12271;SDS011;6198;51.446;6.698;2024-01-06T02:02:58;40.67;;;23.17;;
12271;SDS011;6198;51.446;6.698;2024-01-06T02:05:24;38.70;;;23.23;;
12271;SDS011;6198;51.446;6.698;2024-01-06T02:07:50;43.77;;;23.93;;
12271;SDS011;6198;51.446;6.698;2024-01-06T02:10:17;43.40;;;24.80;;
12271;SDS011;6198;51.446;6.698;2024-01-06T02:12:43;42.30;;;24.47;;
12271;SDS011;6198;51.446;6.698;2024-01-06T02:15:09;41.57;;;24.20;;
12271;SDS011;6198;51.446;6.698;2024-01-06T02:17:35;41.37;;;24.83;;
12271;SDS011;6198;51.446;6.698;2024-01-06T02:20:01;45.30;;;24.87;;
12271;SDS011;6198;51.446;6.698;2024-01-06T02:22:27;42.77;;;23.97;;
12271;SDS011;6198;51.446;6.698;2024-01-06T02:24:53;45.40;;;25.43;;
12271;SDS011;6198;51.446;6.698;2024-01-06T02:27:19;45.07;;;25.70;;
12271;SDS011;6198;51.446;6.698;2024-01-06T02:29:45;54.80;;;27.27;;
12271;SDS011;6198;51.446;6.698;2024-01-06T02:32:11;47.37;;;26.17;;
12271;SDS011;6198;51.446;6.698;2024-01-06T02:34:37;41.37;;;25.33;;
12271;SDS011;6198;51.446;6.698;2024-01-06T02:37:03;50.57;;;26.03;;
12271;SDS011;6198;51.446;6.698;2024-01-06T02:39:29;49.23;;;27.43;;
12271;SDS011;6198;51.446;6.698;2024-01-06T02:41:55;48.73;;;27.00;;
12271;SDS011;6198;51.446;6.698;2024-01-06T02:44:21;47.33;;;26.07;;
12271;SDS011;6198;51.446;6.698;2024-01-06T02:46:47;42.43;;;22.87;;
12271;SDS011;6198;51.446;6.698;2024-01-06T02:49:13;44.87;;;23.47;;
12271;SDS011;6198;51.446;6.698;2024-01-06T02:51:39;41.57;;;21.07;;
12271;SDS011;6198;51.446;6.698;2024-01-06T02:54:05;48.00;;;21.90;;
12271;SDS011;6198;51.446;6.698;2024-01-06T02:56:31;41.03;;;19.67;;
12271;SDS011;6198;51.446;6.698;2024-01-06T02:58:57;42.40;;;20.37;;
12271;SDS011;6198;51.446;6.698;2024-01-06T03:01:22;33.10;;;17.60;;
12271;SDS011;6198;51.446;6.698;2024-01-06T03:03:48;29.23;;;15.93;;
12271;SDS011;6198;51.446;6.698;2024-01-06T03:06:14;30.50;;;15.00;;
12271;SDS011;6198;51.446;6.698;2024-01-06T03:08:40;27.93;;;15.13;;
12271;SDS011;6198;51.446;6.698;2024-01-06T03:11:06;24.80;;;14.53;;
12271;SDS011;6198;51.446;6.698;2024-01-06T03:13:32;28.57;;;14.50;;
12271;SDS011;6198;51.446;6.698;2024-01-06T03:16:02;27.60;;;15.80;;
12271;SDS011;6198;51.446;6.698;2024-01-06T03:18:29;29.20;;;15.13;;
12271;SDS011;6198;51.446;6.698;2024-01-06T03:20:55;25.23;;;13.47;;
12271;SDS011;6198;51.446;6.698;2024-01-06T03:23:21;26.70;;;13.53;;
12271;SDS011;6198;51.446;6.698;2024-01-06T03:25:47;20.93;;;12.10;;
12271;SDS011;6198;51.446;6.698;2024-01-06T03:28:13;23.73;;;13.00;;
12271;SDS011;6198;51.446;6.698;2024-01-06T03:30:39;25.03;;;13.20;;
12271;SDS011;6198;51.446;6.698;2024-01-06T03:33:05;20.37;;;12.20;;
12271;SDS011;6198;51.446;6.698;2024-01-06T03:35:31;20.70;;;12.47;;
12271;SDS011;6198;51.446;6.698;2024-01-06T03:37:57;21.03;;;11.90;;
12271;SDS011;6198;51.446;6.698;2024-01-06T03:40:23;22.63;;;13.07;;
12271;SDS011;6198;51.446;6.698;2024-01-06T03:42:49;24.43;;;13.87;;
12271;SDS011;6198;51.446;6.698;2024-01-06T03:45:15;22.97;;;13.83;;
12271;SDS011;6198;51.446;6.698;2024-01-06T03:47:41;24.17;;;14.20;;
12271;SDS011;6198;51.446;6.698;2024-01-06T03:50:07;22.13;;;13.23;;
12271;SDS011;6198;51.446;6.698;2024-01-06T03:52:33;21.43;;;12.73;;
12271;SDS011;6198;51.446;6.698;2024-01-06T03:54:59;18.87;;;12.23;;
12271;SDS011;6198;51.446;6.698;2024-01-06T03:57:25;21.13;;;13.17;;
12271;SDS011;6198;51.446;6.698;2024-01-06T03:59:51;19.07;;;12.30;;
12271;SDS011;6198;51.446;6.698;2024-01-06T04:02:17;20.33;;;11.60;;
12271;SDS011;6198;51.446;6.698;2024-01-06T04:04:43;15.83;;;11.07;;
12271;SDS011;6198;51.446;6.698;2024-01-06T04:07:09;18.17;;;11.60;;
12271;SDS011;6198;51.446;6.698;2024-01-06T04:09:35;16.93;;;11.53;;
12271;SDS011;6198;51.446;6.698;2024-01-06T04:12:01;15.47;;;10.63;;
12271;SDS011;6198;51.446;6.698;2024-01-06T04:14:27;18.10;;;11.13;;
12271;SDS011;6198;51.446;6.698;2024-01-06T04:16:53;18.17;;;11.77;;
12271;SDS011;6198;51.446;6.698;2024-01-06T04:19:20;17.03;;;10.73;;
12271;SDS011;6198;51.446;6.698;2024-01-06T04:21:46;15.07;;;10.33;;
12271;SDS011;6198;51.446;6.698;2024-01-06T04:24:13;14.40;;;10.77;;
12271;SDS011;6198;51.446;6.698;2024-01-06T04:26:39;16.30;;;11.10;;
12271;SDS011;6198;51.446;6.698;2024-01-06T04:29:05;16.10;;;10.23;;
12271;SDS011;6198;51.446;6.698;2024-01-06T04:31:31;14.87;;;10.50;;
12271;SDS011;6198;51.446;6.698;2024-01-06T04:33:57;16.60;;;11.37;;
12271;SDS011;6198;51.446;6.698;2024-01-06T04:36:23;15.50;;;10.03;;
12271;SDS011;6198;51.446;6.698;2024-01-06T04:38:49;15.23;;;10.57;;
12271;SDS011;6198;51.446;6.698;2024-01-06T04:41:15;16.27;;;10.90;;
12271;SDS011;6198;51.446;6.698;2024-01-06T04:43:41;15.23;;;11.03;;
12271;SDS011;6198;51.446;6.698;2024-01-06T04:46:07;18.20;;;11.37;;
12271;SDS011;6198;51.446;6.698;2024-01-06T04:48:33;15.73;;;10.70;;
12271;SDS011;6198;51.446;6.698;2024-01-06T04:50:58;16.33;;;11.17;;
12271;SDS011;6198;51.446;6.698;2024-01-06T04:53:24;17.57;;;11.43;;
12271;SDS011;6198;51.446;6.698;2024-01-06T04:55:50;18.63;;;10.80;;
12271;SDS011;6198;51.446;6.698;2024-01-06T04:58:16;13.67;;;9.83;;
12271;SDS011;6198;51.446;6.698;2024-01-06T05:00:42;16.43;;;10.87;;
12271;SDS011;6198;51.446;6.698;2024-01-06T05:03:08;17.57;;;11.10;;
12271;SDS011;6198;51.446;6.698;2024-01-06T05:05:34;17.17;;;11.77;;
12271;SDS011;6198;51.446;6.698;2024-01-06T05:08:00;16.33;;;11.33;;
12271;SDS011;6198;51.446;6.698;2024-01-06T05:10:26;17.20;;;11.87;;
12271;SDS011;6198;51.446;6.698;2024-01-06T05:12:52;18.07;;;12.60;;
12271;SDS011;6198;51.446;6.698;2024-01-06T05:15:19;18.20;;;11.83;;
12271;SDS011;6198;51.446;6.698;2024-01-06T05:17:45;16.67;;;11.77;;
12271;SDS011;6198;51.446;6.698;2024-01-06T05:20:11;17.77;;;12.20;;
12271;SDS011;6198;51.446;6.698;2024-01-06T05:22:37;21.97;;;14.03;;
12271;SDS011;6198;51.446;6.698;2024-01-06T05:25:03;18.90;;;12.33;;
12271;SDS011;6198;51.446;6.698;2024-01-06T05:27:29;20.67;;;14.23;;
12271;SDS011;6198;51.446;6.698;2024-01-06T05:29:55;21.27;;;14.60;;
12271;SDS011;6198;51.446;6.698;2024-01-06T05:32:21;22.37;;;14.13;;
12271;SDS011;6198;51.446;6.698;2024-01-06T05:34:48;21.07;;;14.50;;
12271;SDS011;6198;51.446;6.698;2024-01-06T05:37:14;19.90;;;14.20;;
12271;SDS011;6198;51.446;6.698;2024-01-06T05:39:40;20.23;;;13.87;;
12271;SDS011;6198;51.446;6.698;2024-01-06T05:42:06;21.00;;;13.97;;
12271;SDS011;6198;51.446;6.698;2024-01-06T05:44:35;22.87;;;14.07;;
12271;SDS011;6198;51.446;6.698;2024-01-06T05:47:02;19.87;;;14.17;;
12271;SDS011;6198;51.446;6.698;2024-01-06T05:49:28;22.57;;;13.73;;
12271;SDS011;6198;51.446;6.698;2024-01-06T05:51:54;19.60;;;13.67;;
12271;SDS011;6198;51.446;6.698;2024-01-06T05:54:20;20.77;;;13.90;;
12271;SDS011;6198;51.446;6.698;2024-01-06T05:56:46;20.97;;;14.10;;
12271;SDS011;6198;51.446;6.698;2024-01-06T05:59:11;19.00;;;13.00;;
12271;SDS011;6198;51.446;6.698;2024-01-06T06:01:37;19.23;;;13.53;;
12271;SDS011;6198;51.446;6.698;2024-01-06T06:04:03;19.30;;;12.93;;
12271;SDS011;6198;51.446;6.698;2024-01-06T06:06:29;22.20;;;14.13;;
12271;SDS011;6198;51.446;6.698;2024-01-06T06:08:55;18.80;;;12.57;;
12271;SDS011;6198;51.446;6.698;2024-01-06T06:11:21;19.83;;;13.37;;
12271;SDS011;6198;51.446;6.698;2024-01-06T06:13:47;20.23;;;13.83;;
12271;SDS011;6198;51.446;6.698;2024-01-06T06:16:13;19.57;;;12.90;;
12271;SDS011;6198;51.446;6.698;2024-01-06T06:18:39;19.13;;;12.97;;
12271;SDS011;6198;51.446;6.698;2024-01-06T06:21:06;21.67;;;13.47;;
12271;SDS011;6198;51.446;6.698;2024-01-06T06:23:32;18.30;;;12.83;;
12271;SDS011;6198;51.446;6.698;2024-01-06T06:25:59;19.90;;;12.47;;
12271;SDS011;6198;51.446;6.698;2024-01-06T06:28:25;21.27;;;14.17;;
12271;SDS011;6198;51.446;6.698;2024-01-06T06:30:51;18.17;;;12.17;;
12271;SDS011;6198;51.446;6.698;2024-01-06T06:33:17;19.30;;;12.90;;
12271;SDS011;6198;51.446;6.698;2024-01-06T06:35:43;20.53;;;13.87;;
12271;SDS011;6198;51.446;6.698;2024-01-06T06:38:09;21.27;;;13.33;;
12271;SDS011;6198;51.446;6.698;2024-01-06T06:40:35;21.17;;;14.13;;
12271;SDS011;6198;51.446;6.698;2024-01-06T06:43:01;18.63;;;13.93;;
12271;SDS011;6198;51.446;6.698;2024-01-06T06:45:27;19.73;;;13.53;;
12271;SDS011;6198;51.446;6.698;2024-01-06T06:47:53;23.43;;;14.20;;
12271;SDS011;6198;51.446;6.698;2024-01-06T06:50:19;23.30;;;15.43;;
12271;SDS011;6198;51.446;6.698;2024-01-06T06:52:45;24.97;;;14.93;;
12271;SDS011;6198;51.446;6.698;2024-01-06T06:55:12;23.00;;;13.57;;
12271;SDS011;6198;51.446;6.698;2024-01-06T06:57:38;25.90;;;14.43;;
12271;SDS011;6198;51.446;6.698;2024-01-06T07:00:04;21.13;;;14.13;;
12271;SDS011;6198;51.446;6.698;2024-01-06T07:02:32;17.80;;;13.40;;
12271;SDS011;6198;51.446;6.698;2024-01-06T07:04:58;19.03;;;12.70;;
12271;SDS011;6198;51.446;6.698;2024-01-06T07:07:24;22.87;;;13.13;;
12271;SDS011;6198;51.446;6.698;2024-01-06T07:09:50;21.43;;;12.67;;
12271;SDS011;6198;51.446;6.698;2024-01-06T07:12:16;23.83;;;14.47;;
12271;SDS011;6198;51.446;6.698;2024-01-06T07:14:42;22.93;;;14.50;;
12271;SDS011;6198;51.446;6.698;2024-01-06T07:17:08;24.37;;;13.97;;
12271;SDS011;6198;51.446;6.698;2024-01-06T07:19:34;23.73;;;14.00;;
12271;SDS011;6198;51.446;6.698;2024-01-06T07:22:00;23.27;;;15.13;;
12271;SDS011;6198;51.446;6.698;2024-01-06T07:24:26;24.63;;;14.77;;
12271;SDS011;6198;51.446;6.698;2024-01-06T07:26:52;21.40;;;13.93;;
12271;SDS011;6198;51.446;6.698;2024-01-06T07:29:18;29.23;;;16.37;;
12271;SDS011;6198;51.446;6.698;2024-01-06T07:31:44;27.10;;;16.17;;
12271;SDS011;6198;51.446;6.698;2024-01-06T07:34:10;25.57;;;15.70;;
12271;SDS011;6198;51.446;6.698;2024-01-06T07:36:36;28.20;;;16.03;;
12271;SDS011;6198;51.446;6.698;2024-01-06T07:39:03;26.90;;;16.50;;
12271;SDS011;6198;51.446;6.698;2024-01-06T07:41:30;31.30;;;17.13;;
12271;SDS011;6198;51.446;6.698;2024-01-06T07:43:57;27.60;;;15.97;;
12271;SDS011;6198;51.446;6.698;2024-01-06T07:46:23;29.33;;;15.83;;
12271;SDS011;6198;51.446;6.698;2024-01-06T07:48:49;34.73;;;17.03;;
12271;SDS011;6198;51.446;6.698;2024-01-06T07:51:15;25.87;;;16.10;;
12271;SDS011;6198;51.446;6.698;2024-01-06T07:53:41;32.70;;;17.73;;
12271;SDS011;6198;51.446;6.698;2024-01-06T07:56:07;31.83;;;18.13;;
12271;SDS011;6198;51.446;6.698;2024-01-06T07:58:33;33.67;;;19.03;;
12271;SDS011;6198;51.446;6.698;2024-01-06T08:00:59;37.87;;;20.40;;
12271;SDS011;6198;51.446;6.698;2024-01-06T08:03:26;38.30;;;20.50;;
12271;SDS011;6198;51.446;6.698;2024-01-06T08:05:52;36.63;;;20.37;;
12271;SDS011;6198;51.446;6.698;2024-01-06T08:08:19;30.47;;;18.13;;
12271;SDS011;6198;51.446;6.698;2024-01-06T08:10:45;38.57;;;20.03;;
12271;SDS011;6198;51.446;6.698;2024-01-06T08:13:11;30.63;;;17.87;;
12271;SDS011;6198;51.446;6.698;2024-01-06T08:15:38;34.97;;;18.60;;
12271;SDS011;6198;51.446;6.698;2024-01-06T08:18:03;34.47;;;18.33;;
12271;SDS011;6198;51.446;6.698;2024-01-06T08:20:29;38.27;;;20.27;;
12271;SDS011;6198;51.446;6.698;2024-01-06T08:22:55;42.90;;;23.23;;
12271;SDS011;6198;51.446;6.698;2024-01-06T08:25:21;43.30;;;22.63;;
12271;SDS011;6198;51.446;6.698;2024-01-06T08:27:47;44.80;;;22.57;;
12271;SDS011;6198;51.446;6.698;2024-01-06T08:30:13;48.17;;;23.37;;
12271;SDS011;6198;51.446;6.698;2024-01-06T08:32:39;47.53;;;24.07;;
12271;SDS011;6198;51.446;6.698;2024-01-06T08:35:05;46.73;;;22.60;;
12271;SDS011;6198;51.446;6.698;2024-01-06T08:37:32;40.23;;;21.23;;
12271;SDS011;6198;51.446;6.698;2024-01-06T08:39:58;43.93;;;23.17;;
12271;SDS011;6198;51.446;6.698;2024-01-06T08:42:23;44.10;;;23.63;;
12271;SDS011;6198;51.446;6.698;2024-01-06T08:44:51;37.53;;;22.43;;
12271;SDS011;6198;51.446;6.698;2024-01-06T08:47:16;37.67;;;21.30;;
12271;SDS011;6198;51.446;6.698;2024-01-06T08:49:42;42.57;;;21.87;;
12271;SDS011;6198;51.446;6.698;2024-01-06T08:52:08;41.73;;;24.63;;
12271;SDS011;6198;51.446;6.698;2024-01-06T08:54:34;43.53;;;24.17;;
12271;SDS011;6198;51.446;6.698;2024-01-06T08:57:00;44.07;;;24.37;;
12271;SDS011;6198;51.446;6.698;2024-01-06T08:59:26;44.97;;;23.40;;
12271;SDS011;6198;51.446;6.698;2024-01-06T09:01:52;38.87;;;22.43;;
12271;SDS011;6198;51.446;6.698;2024-01-06T09:04:18;44.80;;;22.03;;
12271;SDS011;6198;51.446;6.698;2024-01-06T09:06:44;36.47;;;21.13;;
12271;SDS011;6198;51.446;6.698;2024-01-06T09:09:11;35.87;;;20.10;;
12271;SDS011;6198;51.446;6.698;2024-01-06T09:11:38;37.00;;;21.20;;
12271;SDS011;6198;51.446;6.698;2024-01-06T09:14:04;38.00;;;19.90;;
12271;SDS011;6198;51.446;6.698;2024-01-06T09:16:30;44.27;;;19.87;;
12271;SDS011;6198;51.446;6.698;2024-01-06T09:18:56;40.60;;;27.07;;
12271;SDS011;6198;51.446;6.698;2024-01-06T09:21:22;35.17;;;21.23;;
12271;SDS011;6198;51.446;6.698;2024-01-06T09:23:48;35.23;;;18.90;;
12271;SDS011;6198;51.446;6.698;2024-01-06T09:26:14;31.50;;;18.73;;
12271;SDS011;6198;51.446;6.698;2024-01-06T09:28:41;30.93;;;16.40;;
12271;SDS011;6198;51.446;6.698;2024-01-06T09:31:07;31.47;;;17.37;;
12271;SDS011;6198;51.446;6.698;2024-01-06T09:33:33;30.77;;;18.10;;
12271;SDS011;6198;51.446;6.698;2024-01-06T09:35:59;31.40;;;18.30;;
12271;SDS011;6198;51.446;6.698;2024-01-06T09:38:25;40.60;;;19.33;;
12271;SDS011;6198;51.446;6.698;2024-01-06T09:40:51;44.90;;;21.80;;
12271;SDS011;6198;51.446;6.698;2024-01-06T09:43:19;40.70;;;21.33;;
12271;SDS011;6198;51.446;6.698;2024-01-06T09:45:46;39.80;;;20.17;;
12271;SDS011;6198;51.446;6.698;2024-01-06T09:48:14;43.63;;;20.57;;
12271;SDS011;6198;51.446;6.698;2024-01-06T09:50:40;36.03;;;18.50;;
12271;SDS011;6198;51.446;6.698;2024-01-06T09:53:08;33.70;;;16.90;;
12271;SDS011;6198;51.446;6.698;2024-01-06T09:55:36;30.87;;;16.93;;
12271;SDS011;6198;51.446;6.698;2024-01-06T09:58:02;28.10;;;16.17;;
12271;SDS011;6198;51.446;6.698;2024-01-06T10:00:28;33.43;;;17.57;;
12271;SDS011;6198;51.446;6.698;2024-01-06T10:02:54;35.10;;;17.63;;
12271;SDS011;6198;51.446;6.698;2024-01-06T10:05:20;33.03;;;18.60;;
12271;SDS011;6198;51.446;6.698;2024-01-06T10:07:46;32.20;;;17.60;;
12271;SDS011;6198;51.446;6.698;2024-01-06T10:10:13;33.17;;;17.03;;
12271;SDS011;6198;51.446;6.698;2024-01-06T10:12:39;38.30;;;17.23;;
12271;SDS011;6198;51.446;6.698;2024-01-06T10:15:08;31.43;;;16.33;;
12271;SDS011;6198;51.446;6.698;2024-01-06T10:17:37;29.23;;;16.03;;
12271;SDS011;6198;51.446;6.698;2024-01-06T10:20:12;27.40;;;15.43;;
12271;SDS011;6198;51.446;6.698;2024-01-06T10:22:41;27.30;;;14.70;;
12271;SDS011;6198;51.446;6.698;2024-01-06T10:25:07;24.43;;;14.43;;
12271;SDS011;6198;51.446;6.698;2024-01-06T10:27:35;26.60;;;15.60;;
12271;SDS011;6198;51.446;6.698;2024-01-06T10:30:01;32.27;;;16.50;;
12271;SDS011;6198;51.446;6.698;2024-01-06T10:32:30;29.63;;;16.03;;
12271;SDS011;6198;51.446;6.698;2024-01-06T10:34:56;28.33;;;16.43;;
12271;SDS011;6198;51.446;6.698;2024-01-06T10:37:23;26.10;;;15.20;;
12271;SDS011;6198;51.446;6.698;2024-01-06T10:39:52;36.20;;;17.77;;
12271;SDS011;6198;51.446;6.698;2024-01-06T10:42:30;32.63;;;18.27;;
12271;SDS011;6198;51.446;6.698;2024-01-06T10:44:56;36.60;;;19.70;;
12271;SDS011;6198;51.446;6.698;2024-01-06T10:47:22;40.47;;;21.40;;
12271;SDS011;6198;51.446;6.698;2024-01-06T10:49:49;36.40;;;21.47;;
12271;SDS011;6198;51.446;6.698;2024-01-06T10:52:15;40.53;;;21.30;;
12271;SDS011;6198;51.446;6.698;2024-01-06T10:54:41;43.27;;;23.70;;
12271;SDS011;6198;51.446;6.698;2024-01-06T10:57:07;44.70;;;24.60;;
12271;SDS011;6198;51.446;6.698;2024-01-06T10:59:34;44.77;;;24.20;;
12271;SDS011;6198;51.446;6.698;2024-01-06T11:02:00;42.03;;;22.73;;
12271;SDS011;6198;51.446;6.698;2024-01-06T11:04:27;43.17;;;23.13;;
12271;SDS011;6198;51.446;6.698;2024-01-06T11:06:53;35.97;;;20.07;;
12271;SDS011;6198;51.446;6.698;2024-01-06T11:09:21;32.73;;;18.73;;
12271;SDS011;6198;51.446;6.698;2024-01-06T11:11:48;33.67;;;19.13;;
12271;SDS011;6198;51.446;6.698;2024-01-06T11:14:24;38.57;;;20.23;;
12271;SDS011;6198;51.446;6.698;2024-01-06T11:16:51;43.00;;;22.47;;
12271;SDS011;6198;51.446;6.698;2024-01-06T11:24:43;41.67;;;22.20;;
12271;SDS011;6198;51.446;6.698;2024-01-06T11:27:34;44.83;;;23.97;;
12271;SDS011;6198;51.446;6.698;2024-01-06T11:30:01;42.90;;;24.00;;
12271;SDS011;6198;51.446;6.698;2024-01-06T11:32:31;47.37;;;24.07;;
12271;SDS011;6198;51.446;6.698;2024-01-06T11:35:10;43.30;;;24.47;;
12271;SDS011;6198;51.446;6.698;2024-01-06T11:42:37;42.83;;;23.30;;
12271;SDS011;6198;51.446;6.698;2024-01-06T11:45:04;44.47;;;22.73;;
12271;SDS011;6198;51.446;6.698;2024-01-06T11:47:33;44.23;;;23.20;;
12271;SDS011;6198;51.446;6.698;2024-01-06T11:50:00;44.03;;;21.53;;
12271;SDS011;6198;51.446;6.698;2024-01-06T11:52:29;44.17;;;22.40;;
12271;SDS011;6198;51.446;6.698;2024-01-06T11:54:55;42.33;;;21.73;;
12271;SDS011;6198;51.446;6.698;2024-01-06T11:57:21;35.20;;;21.13;;
12271;SDS011;6198;51.446;6.698;2024-01-06T11:59:47;40.93;;;21.13;;
12271;SDS011;6198;51.446;6.698;2024-01-06T12:02:16;38.80;;;19.90;;
12271;SDS011;6198;51.446;6.698;2024-01-06T12:04:45;36.17;;;18.67;;
12271;SDS011;6198;51.446;6.698;2024-01-06T12:07:13;38.60;;;20.07;;
12271;SDS011;6198;51.446;6.698;2024-01-06T12:09:40;37.07;;;19.43;;
12271;SDS011;6198;51.446;6.698;2024-01-06T12:12:06;40.93;;;21.57;;
12271;SDS011;6198;51.446;6.698;2024-01-06T12:14:32;39.20;;;19.97;;
12271;SDS011;6198;51.446;6.698;2024-01-06T12:17:01;39.70;;;19.40;;
12271;SDS011;6198;51.446;6.698;2024-01-06T12:19:30;38.20;;;19.63;;
12271;SDS011;6198;51.446;6.698;2024-01-06T12:21:56;40.83;;;20.07;;
12271;SDS011;6198;51.446;6.698;2024-01-06T12:24:22;36.87;;;20.60;;
12271;SDS011;6198;51.446;6.698;2024-01-06T12:26:48;31.97;;;17.97;;
12271;SDS011;6198;51.446;6.698;2024-01-06T12:29:16;35.60;;;18.13;;
12271;SDS011;6198;51.446;6.698;2024-01-06T12:31:43;35.07;;;19.17;;
12271;SDS011;6198;51.446;6.698;2024-01-06T12:34:09;32.40;;;17.20;;
12271;SDS011;6198;51.446;6.698;2024-01-06T12:36:36;29.80;;;16.23;;
12271;SDS011;6198;51.446;6.698;2024-01-06T12:39:03;35.13;;;16.33;;
12271;SDS011;6198;51.446;6.698;2024-01-06T12:41:29;31.00;;;15.40;;
12271;SDS011;6198;51.446;6.698;2024-01-06T12:43:58;35.20;;;17.83;;
12271;SDS011;6198;51.446;6.698;2024-01-06T12:46:24;38.87;;;19.07;;
12271;SDS011;6198;51.446;6.698;2024-01-06T12:48:50;35.60;;;17.97;;
12271;SDS011;6198;51.446;6.698;2024-01-06T12:51:16;32.10;;;15.87;;
12271;SDS011;6198;51.446;6.698;2024-01-06T12:53:41;28.43;;;14.20;;
12271;SDS011;6198;51.446;6.698;2024-01-06T12:56:07;30.13;;;15.37;;
12271;SDS011;6198;51.446;6.698;2024-01-06T12:58:33;28.27;;;16.17;;
12271;SDS011;6198;51.446;6.698;2024-01-06T13:00:59;23.90;;;12.67;;
12271;SDS011;6198;51.446;6.698;2024-01-06T13:03:27;29.67;;;15.93;;
12271;SDS011;6198;51.446;6.698;2024-01-06T13:05:53;30.47;;;15.13;;
12271;SDS011;6198;51.446;6.698;2024-01-06T13:08:19;26.67;;;14.70;;
12271;SDS011;6198;51.446;6.698;2024-01-06T13:10:46;28.67;;;14.43;;
12271;SDS011;6198;51.446;6.698;2024-01-06T13:13:12;23.80;;;13.40;;
12271;SDS011;6198;51.446;6.698;2024-01-06T13:15:38;24.13;;;14.83;;
12271;SDS011;6198;51.446;6.698;2024-01-06T13:18:04;28.87;;;16.87;;
12271;SDS011;6198;51.446;6.698;2024-01-06T13:20:30;28.87;;;16.53;;
12271;SDS011;6198;51.446;6.698;2024-01-06T13:22:56;29.67;;;18.60;;
12271;SDS011;6198;51.446;6.698;2024-01-06T13:25:22;26.30;;;15.07;;
12271;SDS011;6198;51.446;6.698;2024-01-06T13:27:48;28.37;;;16.20;;
12271;SDS011;6198;51.446;6.698;2024-01-06T13:30:15;29.10;;;15.73;;
12271;SDS011;6198;51.446;6.698;2024-01-06T13:32:42;26.03;;;16.33;;
12271;SDS011;6198;51.446;6.698;2024-01-06T13:35:08;25.43;;;16.37;;
12271;SDS011;6198;51.446;6.698;2024-01-06T13:37:36;23.97;;;16.17;;
12271;SDS011;6198;51.446;6.698;2024-01-06T13:40:02;29.27;;;17.63;;
12271;SDS011;6198;51.446;6.698;2024-01-06T13:42:28;27.87;;;16.13;;
12271;SDS011;6198;51.446;6.698;2024-01-06T13:44:54;27.97;;;16.77;;
12271;SDS011;6198;51.446;6.698;2024-01-06T13:47:20;24.77;;;15.47;;
12271;SDS011;6198;51.446;6.698;2024-01-06T13:49:46;27.27;;;17.07;;
12271;SDS011;6198;51.446;6.698;2024-01-06T13:52:12;33.53;;;18.20;;
12271;SDS011;6198;51.446;6.698;2024-01-06T13:54:38;31.03;;;18.20;;
12271;SDS011;6198;51.446;6.698;2024-01-06T13:57:04;29.67;;;17.50;;
12271;SDS011;6198;51.446;6.698;2024-01-06T13:59:30;28.80;;;16.57;;
12271;SDS011;6198;51.446;6.698;2024-01-06T14:01:56;29.60;;;16.20;;
12271;SDS011;6198;51.446;6.698;2024-01-06T14:04:22;26.60;;;16.43;;
12271;SDS011;6198;51.446;6.698;2024-01-06T14:06:48;29.30;;;17.10;;
12271;SDS011;6198;51.446;6.698;2024-01-06T14:09:20;28.57;;;17.23;;
12271;SDS011;6198;51.446;6.698;2024-01-06T14:11:46;30.40;;;18.20;;
12271;SDS011;6198;51.446;6.698;2024-01-06T14:14:12;28.17;;;18.83;;
12271;SDS011;6198;51.446;6.698;2024-01-06T14:16:38;31.97;;;19.20;;
12271;SDS011;6198;51.446;6.698;2024-01-06T14:19:04;31.33;;;18.70;;
12271;SDS011;6198;51.446;6.698;2024-01-06T14:21:30;32.73;;;18.87;;
12271;SDS011;6198;51.446;6.698;2024-01-06T14:23:56;31.83;;;19.17;;
12271;SDS011;6198;51.446;6.698;2024-01-06T14:26:23;39.37;;;22.10;;
12271;SDS011;6198;51.446;6.698;2024-01-06T14:28:49;40.97;;;22.27;;
12271;SDS011;6198;51.446;6.698;2024-01-06T14:31:15;34.90;;;21.53;;
12271;SDS011;6198;51.446;6.698;2024-01-06T14:33:41;35.00;;;21.27;;
12271;SDS011;6198;51.446;6.698;2024-01-06T14:36:07;37.13;;;22.23;;
12271;SDS011;6198;51.446;6.698;2024-01-06T14:38:33;39.13;;;22.17;;